Time;durP1;ratioP1;P1;durP2;ratioP2;P2;SDS_P1;SDS_P2;PMS_P1;PMS_P2;Temp;Humidity;BMP_temperature;BMP_pressure;BME280_temperature;BME280_humidity;BME280_pressure;Samples;Min_cycle;Max_cycle;Signal;HPM_P1;HPM_P2
2021/05/15 00:01:15;;;;;;;22.73;10.40;;;;;;;8.93;73.88;99533.16;125507;1104;23182;-62
2021/05/15 00:03:44;;;;;;;23.33;9.00;;;;;;;8.88;73.89;99527.50;125540;1104;22822;-63
2021/05/15 00:06:12;;;;;;;21.43;8.93;;;;;;;8.80;73.95;99521.58;125495;1104;22799;-60
2021/05/15 00:08:41;;;;;;;27.17;9.70;;;;;;;8.74;74.13;99525.53;125568;1099;26669;-62
2021/05/15 00:11:09;;;;;;;20.97;8.60;;;;;;;8.69;74.09;99529.76;125489;1100;25567;-62
2021/05/15 00:13:39;;;;;;;24.63;9.17;;;;;;;8.63;74.30;99528.91;125517;1104;22774;-62
2021/05/15 00:16:08;;;;;;;23.67;9.30;;;;;;;8.58;74.13;99537.95;125480;1104;22803;-62
2021/05/15 00:18:37;;;;;;;19.78;8.45;;;;;;;8.53;74.13;99530.27;125627;1099;22910;-63
2021/05/15 00:21:07;;;;;;;21.73;8.53;;;;;;;8.49;74.08;99526.15;125467;1098;27093;-61
2021/05/15 00:23:36;;;;;;;20.83;9.18;;;;;;;8.45;73.97;99526.36;125555;1104;22758;-62
2021/05/15 00:26:06;;;;;;;23.40;8.50;;;;;;;8.43;73.89;99530.86;125622;1099;25561;-61
2021/05/15 00:28:34;;;;;;;22.23;8.80;;;;;;;8.40;73.92;99517.94;125551;1104;22913;-61
2021/05/15 00:31:03;;;;;;;21.67;8.83;;;;;;;8.35;73.92;99526.94;125507;1100;27758;-61
2021/05/15 00:33:32;;;;;;;20.60;8.00;;;;;;;8.31;74.12;99529.92;125537;1104;22796;-63
2021/05/15 00:36:00;;;;;;;24.50;9.30;;;;;;;8.28;74.21;99535.66;125642;1099;27282;-62
2021/05/15 00:38:29;;;;;;;20.20;8.77;;;;;;;8.25;74.25;99531.85;125521;1104;22740;-62
2021/05/15 00:40:58;;;;;;;22.07;9.73;;;;;;;8.24;74.03;99523.94;125513;1099;22758;-62
2021/05/15 00:43:28;;;;;;;19.85;8.90;;;;;;;8.22;74.20;99532.77;125616;1104;22761;-62
2021/05/15 00:45:58;;;;;;;19.97;7.87;;;;;;;8.16;74.17;99535.46;125585;1104;22829;-62
2021/05/15 00:48:27;;;;;;;19.60;8.47;;;;;;;8.14;74.16;99531.63;125434;1104;22768;-61
2021/05/15 00:50:55;;;;;;;23.25;7.90;;;;;;;8.12;74.19;99539.67;125581;1098;27625;-62
2021/05/15 00:53:24;;;;;;;19.50;7.93;;;;;;;8.11;74.30;99538.16;125661;1098;25909;-62
2021/05/15 00:55:53;;;;;;;18.70;8.40;;;;;;;8.09;74.17;99541.39;125440;1105;25283;-62
2021/05/15 00:58:22;;;;;;;17.37;8.40;;;;;;;8.11;74.14;99540.94;125490;1104;22747;-60
2021/05/15 01:00:51;;;;;;;18.83;8.77;;;;;;;8.08;74.19;99539.09;125577;1104;22764;-62
2021/05/15 01:03:19;;;;;;;22.47;8.33;;;;;;;8.07;74.28;99534.77;125490;1104;22758;-63
2021/05/15 01:05:48;;;;;;;21.07;9.30;;;;;;;8.07;74.27;99545.89;125469;1104;22913;-62
2021/05/15 01:08:19;;;;;;;23.50;8.85;;;;;;;8.08;74.54;99544.66;125508;1104;23489;-61
2021/05/15 01:10:48;;;;;;;22.60;9.90;;;;;;;8.06;74.46;99538.81;125524;1098;27680;-62
2021/05/15 01:13:27;;;;;;;23.47;9.63;;;;;;;8.01;74.59;99553.37;125483;1104;22770;-60
2021/05/15 01:15:56;;;;;;;21.77;8.90;;;;;;;7.97;74.49;99559.13;125492;1099;25867;-63
2021/05/15 01:18:26;;;;;;;22.47;9.10;;;;;;;7.92;74.79;99553.47;125513;1105;22826;-62
2021/05/15 01:20:59;;;;;;;19.27;8.53;;;;;;;7.86;74.63;99558.91;125540;1104;22744;-61
2021/05/15 01:23:28;;;;;;;23.50;9.60;;;;;;;7.81;74.63;99553.25;125687;1104;22763;-62
2021/05/15 01:25:57;;;;;;;18.53;8.67;;;;;;;7.78;74.58;99559.78;125505;1104;24571;-62
2021/05/15 01:28:31;;;;;;;21.37;8.20;;;;;;;7.74;74.63;99557.16;125548;1104;22737;-62
2021/05/15 01:30:59;;;;;;;21.80;8.53;;;;;;;7.69;74.56;99552.28;125583;1104;22910;-60
2021/05/15 01:33:28;;;;;;;20.93;7.93;;;;;;;7.66;74.54;99555.23;125481;1104;22768;-62
2021/05/15 01:35:56;;;;;;;21.27;9.03;;;;;;;7.62;74.65;99554.64;125428;1104;24531;-62
2021/05/15 01:38:27;;;;;;;17.50;7.93;;;;;;;7.58;74.58;99559.62;125466;1098;22768;-62
2021/05/15 01:41:00;;;;;;;23.05;8.60;;;;;;;7.55;74.67;99555.03;125528;1104;22932;-61
2021/05/15 01:43:29;;;;;;;20.93;7.83;;;;;;;7.52;74.62;99558.74;125575;1104;22725;-62
2021/05/15 01:45:58;;;;;;;19.57;8.07;;;;;;;7.50;74.63;99566.78;125500;1100;26659;-60
2021/05/15 01:48:27;;;;;;;22.87;9.27;;;;;;;7.48;74.63;99563.71;125484;1104;22744;-62
2021/05/15 01:51:01;;;;;;;20.17;8.03;;;;;;;7.46;74.45;99557.86;125550;1104;22775;-61
2021/05/15 01:53:32;;;;;;;18.60;7.80;;;;;;;7.45;74.75;99564.67;125792;1104;22810;-59
2021/05/15 01:56:01;;;;;;;17.95;8.10;;;;;;;7.42;74.71;99560.05;125476;1105;22772;-62
2021/05/15 01:58:31;;;;;;;23.15;9.05;;;;;;;7.39;74.75;99561.02;125621;1104;22744;-60
2021/05/15 02:00:59;;;;;;;21.07;8.53;;;;;;;7.37;74.71;99563.50;125560;1099;27111;-61
2021/05/15 02:03:29;;;;;;;22.73;9.70;;;;;;;7.34;74.80;99565.21;125652;1104;24571;-63
2021/05/15 02:05:58;;;;;;;22.35;8.83;;;;;;;7.32;74.84;99567.69;125483;1104;22762;-62
2021/05/15 02:08:27;;;;;;;20.27;9.20;;;;;;;7.30;74.85;99561.84;125710;1104;24439;-60
2021/05/15 02:10:56;;;;;;;22.03;9.37;;;;;;;7.26;74.70;99567.55;125734;1104;22740;-60
2021/05/15 02:13:26;;;;;;;22.13;8.70;;;;;;;7.21;74.96;99567.45;125775;1098;22788;-61
2021/05/15 02:15:56;;;;;;;21.68;8.83;;;;;;;7.17;74.77;99561.30;125636;1104;22819;-62
2021/05/15 02:18:25;;;;;;;19.73;8.90;;;;;;;7.14;74.78;99568.56;125665;1104;22755;-61
2021/05/15 02:20:54;;;;;;;22.03;9.50;;;;;;;7.13;74.92;99563.48;125567;1104;22743;-62
2021/05/15 02:23:25;;;;;;;18.27;7.23;;;;;;;7.09;74.91;99562.90;125610;1104;22823;-59
2021/05/15 02:25:54;;;;;;;16.53;7.10;;;;;;;7.07;74.80;99557.05;125576;1104;22822;-62
2021/05/15 02:28:23;;;;;;;18.17;6.80;;;;;;;7.05;74.74;99553.98;125514;1105;22764;-62
2021/05/15 02:30:52;;;;;;;19.27;7.70;;;;;;;7.02;74.89;99561.23;125537;1099;27287;-62
2021/05/15 02:33:21;;;;;;;19.13;8.10;;;;;;;6.98;74.91;99549.55;125497;1104;22784;-62
2021/05/15 02:35:51;;;;;;;19.07;7.60;;;;;;;6.95;75.02;99552.50;125617;1100;22754;-63
2021/05/15 02:38:21;;;;;;;17.20;7.43;;;;;;;6.92;75.22;99559.75;125549;1104;22758;-60
2021/05/15 02:40:53;;;;;;;21.00;8.00;;;;;;;6.87;75.06;99559.64;125597;1099;22755;-63
2021/05/15 02:43:24;;;;;;;17.25;7.10;;;;;;;6.86;75.25;99558.09;125556;1104;22744;-62
2021/05/15 02:45:53;;;;;;;16.30;6.70;;;;;;;6.83;75.08;99554.24;125480;1098;25823;-62
2021/05/15 02:48:22;;;;;;;19.10;7.30;;;;;;;6.82;75.14;99563.05;125560;1100;22829;-60
2021/05/15 02:50:52;;;;;;;17.93;7.33;;;;;;;6.80;75.07;99557.97;125546;1105;22740;-63
2021/05/15 02:53:21;;;;;;;17.20;7.00;;;;;;;6.78;75.12;99563.22;125728;1104;24436;-62
2021/05/15 02:55:50;;;;;;;18.50;7.20;;;;;;;6.77;75.15;99563.67;125783;1100;22806;-62
2021/05/15 02:58:19;;;;;;;17.17;6.87;;;;;;;6.77;75.23;99555.34;125528;1099;27167;-62
2021/05/15 03:00:48;;;;;;;17.27;6.73;;;;;;;6.80;75.36;99549.65;125550;1104;22761;-62
2021/05/15 03:03:18;;;;;;;14.73;5.90;;;;;;;6.80;75.08;99557.97;125534;1100;27105;-60
2021/05/15 03:05:48;;;;;;;14.30;5.20;;;;;;;6.81;75.29;99547.62;125667;1104;22722;-62
2021/05/15 03:08:16;;;;;;;16.68;5.83;;;;;;;6.79;75.57;99561.97;125590;1104;22803;-62
2021/05/15 03:10:46;;;;;;;16.17;5.67;;;;;;;6.77;75.50;99558.89;125542;1100;26230;-60
2021/05/15 03:13:15;;;;;;;18.20;6.27;;;;;;;6.76;75.55;99562.92;125630;1104;22820;-62
2021/05/15 03:15:44;;;;;;;16.85;5.40;;;;;;;6.74;75.63;99573.72;125515;1104;22752;-61
2021/05/15 03:18:12;;;;;;;16.37;5.67;;;;;;;6.73;75.57;99569.39;125509;1104;22910;-62
2021/05/15 03:20:41;;;;;;;13.93;5.40;;;;;;;6.71;75.59;99573.87;125570;1099;22803;-61
2021/05/15 03:23:10;;;;;;;16.83;5.23;;;;;;;6.68;75.64;99578.38;125535;1104;24001;-62
2021/05/15 03:25:39;;;;;;;17.45;5.45;;;;;;;6.67;75.73;99579.59;125506;1099;27511;-62
2021/05/15 03:28:07;;;;;;;14.83;5.60;;;;;;;6.67;75.82;99582.37;125546;1105;24400;-62
2021/05/15 03:30:36;;;;;;;15.97;5.27;;;;;;;6.67;75.88;99576.82;125546;1104;22744;-62
2021/05/15 03:33:05;;;;;;;14.07;5.00;;;;;;;6.67;75.89;99573.27;125548;1105;22765;-61
2021/05/15 03:35:34;;;;;;;17.33;5.33;;;;;;;6.67;75.92;99576.82;125633;1104;22910;-62
2021/05/15 03:38:03;;;;;;;17.07;5.67;;;;;;;6.66;76.08;99572.52;125618;1100;22910;-61
2021/05/15 03:40:32;;;;;;;15.10;5.57;;;;;;;6.65;75.97;99579.30;125529;1104;22830;-61
2021/05/15 03:43:00;;;;;;;17.60;6.07;;;;;;;6.64;76.26;99572.23;125573;1104;22758;-61
2021/05/15 03:45:29;;;;;;;19.63;6.27;;;;;;;6.62;76.26;99577.44;125516;1105;22917;-60
2021/05/15 03:47:57;;;;;;;19.33;7.30;;;;;;;6.62;76.23;99577.44;125582;1104;22764;-61
2021/05/15 03:50:27;;;;;;;21.80;8.15;;;;;;;6.62;76.26;99582.99;125539;1098;26108;-61
2021/05/15 03:52:55;;;;;;;20.30;7.97;;;;;;;6.63;76.20;99575.45;125554;1099;22910;-61
2021/05/15 03:55:24;;;;;;;17.87;7.47;;;;;;;6.64;76.24;99586.09;125498;1104;23287;-62
2021/05/15 03:57:53;;;;;;;22.10;7.57;;;;;;;6.63;76.43;99584.55;125686;1104;22867;-60
2021/05/15 04:00:24;;;;;;;16.77;6.27;;;;;;;6.64;76.51;99588.09;125436;1105;22830;-62
2021/05/15 04:02:53;;;;;;;25.00;8.17;;;;;;;6.62;76.62;99591.31;125591;1104;23488;-62
2021/05/15 04:05:23;;;;;;;20.05;8.15;;;;;;;6.62;76.66;99585.02;125485;1104;22769;-61
2021/05/15 04:07:52;;;;;;;18.40;7.27;;;;;;;6.64;76.88;99580.55;125656;1105;22850;-61
2021/05/15 04:10:20;;;;;;;21.13;7.40;;;;;;;6.65;76.80;99593.16;125525;1104;22737;-62
2021/05/15 04:12:50;;;;;;;16.83;6.47;;;;;;;6.69;76.97;99602.08;125565;1104;22802;-62
2021/05/15 04:15:34;;;;;;;16.60;7.07;;;;;;;6.73;77.14;99601.91;125648;1105;22752;-62
2021/05/15 04:18:08;;;;;;;19.03;7.10;;;;;;;6.76;77.09;99604.53;125492;1104;22740;-61
2021/05/15 04:20:38;;;;;;;18.27;7.10;;;;;;;6.83;77.33;99598.63;125574;1100;22760;-61
2021/05/15 04:23:07;;;;;;;18.70;7.95;;;;;;;6.90;77.72;99595.53;125701;1100;27503;-58
2021/05/15 04:25:37;;;;;;;20.33;7.97;;;;;;;6.98;77.70;99599.49;125551;1098;27725;-62
2021/05/15 04:28:07;;;;;;;22.63;9.53;;;;;;;7.06;77.67;99595.13;125644;1099;26692;-62
2021/05/15 04:30:35;;;;;;;;;;;;;;;7.16;78.41;99598.62;125688;1098;27316;-61
2021/05/15 04:33:04;;;;;;;22.77;10.10;;;;;;;7.26;78.49;99606.42;125582;1099;24604;-62
2021/05/15 04:35:33;;;;;;;23.37;11.77;;;;;;;7.37;78.68;99602.38;125587;1099;22729;-63
2021/05/15 04:38:04;;;;;;;21.40;9.73;;;;;;;7.45;78.44;99600.78;126809;1087;119691;-77
2021/05/15 04:40:32;;;;;;;;;;;;;;;7.55;78.48;99602.25;126504;1104;22883;-79
2021/05/15 04:43:01;;;;;;;21.33;9.47;;;;;;;7.64;78.43;99602.16;126175;1104;21474;-77
2021/05/15 04:45:31;;;;;;;22.77;10.07;;;;;;;7.74;79.00;99598.84;126449;1100;22883;-77
2021/05/15 04:48:00;;;;;;;20.63;9.63;;;;;;;7.84;79.17;99599.55;126250;1099;25950;-77
2021/05/15 04:50:28;;;;;;;26.15;11.90;;;;;;;7.95;79.11;99602.53;126297;1104;22780;-77
2021/05/15 04:52:57;;;;;;;19.87;9.43;;;;;;;8.07;79.50;99602.27;126241;1104;22787;-77
2021/05/15 04:55:26;;;;;;;25.53;10.93;;;;;;;8.23;79.61;99614.18;126264;1100;23940;-77
2021/05/15 04:57:57;;;;;;;23.17;11.10;;;;;;;8.36;79.83;99611.92;126213;1104;22826;-78
2021/05/15 05:00:26;;;;;;;27.63;12.37;;;;;;;8.51;80.09;99605.10;126211;1104;25275;-78
2021/05/15 05:02:56;;;;;;;27.97;13.10;;;;;;;8.67;80.27;99606.64;126107;1104;22891;-78
2021/05/15 05:05:24;;;;;;;29.63;12.90;;;;;;;8.79;80.24;99611.88;126130;1104;22724;-79
2021/05/15 05:07:53;;;;;;;24.10;11.97;;;;;;;8.98;80.55;99604.06;126578;1105;22829;-79
2021/05/15 05:10:21;;;;;;;27.27;12.33;;;;;;;9.14;80.30;99611.92;126272;1104;22815;-79
2021/05/15 05:12:50;;;;;;;24.27;11.93;;;;;;;9.27;80.42;99617.17;126192;1100;22790;-80
2021/05/15 05:15:18;;;;;;;24.37;12.87;;;;;;;9.37;80.28;99619.32;126255;1100;27323;-79
2021/05/15 05:17:48;;;;;;;28.50;13.60;;;;;;;9.51;80.38;99620.53;126273;1104;22750;-79
2021/05/15 05:20:17;;;;;;;26.10;13.45;;;;;;;9.62;80.45;99629.05;126415;1098;26018;-79
2021/05/15 05:22:47;;;;;;;29.07;14.87;;;;;;;9.74;80.34;99622.36;126237;1100;27113;-79
2021/05/15 05:25:17;;;;;;;24.60;12.60;;;;;;;9.86;80.70;99626.03;126167;1104;22732;-79
2021/05/15 05:27:47;;;;;;;26.50;13.23;;;;;;;9.97;80.72;99624.16;126547;1099;27326;-79
2021/05/15 05:30:17;;;;;;;26.78;11.98;;;;;;;10.10;80.80;99627.36;126330;1104;22785;-79
2021/05/15 05:32:47;;;;;;;25.20;12.03;;;;;;;10.26;80.68;99629.55;126356;1104;22835;-79
2021/05/15 05:35:16;;;;;;;21.43;10.77;;;;;;;10.37;80.50;99626.88;126242;1104;22751;-79
2021/05/15 05:37:45;;;;;;;25.83;10.40;;;;;;;10.49;80.25;99627.77;126168;1100;23704;-79
2021/05/15 05:40:15;;;;;;;20.47;9.40;;;;;;;10.61;80.18;99626.61;126335;1104;22818;-79
2021/05/15 05:42:44;;;;;;;18.93;9.93;;;;;;;10.73;79.78;99627.45;126370;1099;25882;-79
2021/05/15 05:45:15;;;;;;;21.25;8.50;;;;;;;10.84;79.55;99633.89;126318;1104;22826;-79
2021/05/15 05:47:43;;;;;;;16.47;8.73;;;;;;;10.95;79.32;99633.22;126243;1105;22815;-79
2021/05/15 05:50:13;;;;;;;20.53;9.90;;;;;;;11.04;79.36;99630.25;126206;1105;22754;-79
2021/05/15 05:52:41;;;;;;;21.60;9.67;;;;;;;11.15;79.16;99633.88;126270;1104;22809;-79
2021/05/15 05:55:11;;;;;;;18.60;8.13;;;;;;;11.25;79.43;99634.47;126302;1104;22823;-79
2021/05/15 05:57:39;;;;;;;17.70;8.60;;;;;;;11.44;79.36;99626.45;126267;1099;26353;-79
2021/05/15 06:00:10;;;;;;;19.90;8.87;;;;;;;11.55;78.77;99632.08;126265;1104;22923;-79
2021/05/15 06:02:39;;;;;;;20.37;8.90;;;;;;;11.65;79.30;99633.42;126400;1104;22812;-79
2021/05/15 06:05:10;;;;;;;22.13;9.17;;;;;;;11.75;79.53;99631.97;126110;1099;26231;-79
2021/05/15 06:07:38;;;;;;;17.55;8.00;;;;;;;11.87;79.46;99631.52;126228;1104;22825;-78
2021/05/15 06:10:09;;;;;;;15.20;6.53;;;;;;;11.97;78.73;99632.83;126177;1100;25880;-78
2021/05/15 06:12:37;;;;;;;15.47;5.90;;;;;;;12.08;78.11;99624.45;126101;1105;22780;-79
2021/05/15 06:15:08;;;;;;;16.47;6.37;;;;;;;12.17;77.46;99629.83;126115;1100;22757;-78
2021/05/15 06:17:37;;;;;;;13.00;4.90;;;;;;;12.27;77.50;99626.81;126747;1104;22866;-79
2021/05/15 06:20:07;;;;;;;13.10;5.55;;;;;;;12.34;77.05;99626.30;126204;1100;22923;-79
2021/05/15 06:22:35;;;;;;;13.63;5.65;;;;;;;12.44;77.79;99633.19;126283;1104;22816;-80
2021/05/15 06:25:04;;;;;;;13.70;5.97;;;;;;;12.54;76.80;99632.44;126213;1104;22767;-79
2021/05/15 06:27:33;;;;;;;15.28;5.38;;;;;;;12.63;76.85;99640.61;126264;1104;23673;-78
2021/05/15 06:30:01;;;;;;;15.30;5.75;;;;;;;12.73;76.46;99643.91;126212;1105;24157;-79
2021/05/15 06:32:30;;;;;;;12.00;5.30;;;;;;;12.83;76.63;99642.39;126142;1104;24400;-78
2021/05/15 06:34:58;;;;;;;15.93;5.60;;;;;;;12.91;76.00;99643.44;126117;1104;22794;-77
2021/05/15 06:37:26;;;;;;;10.23;4.40;;;;;;;13.01;75.66;99644.70;126178;1104;22761;-77
2021/05/15 06:39:55;;;;;;;11.53;4.67;;;;;;;13.12;75.63;99646.77;126156;1104;23203;-78
2021/05/15 06:42:23;;;;;;;14.75;5.35;;;;;;;13.16;75.50;99642.41;126106;1099;22854;-78
2021/05/15 06:44:52;;;;;;;13.10;5.00;;;;;;;13.24;75.69;99643.41;126165;1104;22825;-78
2021/05/15 06:47:21;;;;;;;11.63;4.67;;;;;;;13.36;76.40;99647.75;126191;1099;25880;-77
2021/05/15 06:49:49;;;;;;;14.20;5.45;;;;;;;13.52;75.79;99648.98;126150;1104;22771;-78
2021/05/15 06:52:18;;;;;;;11.00;4.65;;;;;;;13.63;75.22;99641.32;126172;1099;26554;-77
2021/05/15 06:54:47;;;;;;;14.35;5.10;;;;;;;13.77;74.59;99637.45;126188;1100;22767;-76
2021/05/15 06:57:17;;;;;;;10.38;4.40;;;;;;;13.86;74.02;99641.23;126215;1104;22967;-78
2021/05/15 06:59:46;;;;;;;11.68;4.50;;;;;;;13.93;74.50;99633.03;126243;1104;22806;-77
2021/05/15 07:02:15;;;;;;;13.37;4.23;;;;;;;14.03;73.92;99637.06;126131;1104;22788;-77
2021/05/15 07:04:44;;;;;;;11.57;4.13;;;;;;;14.13;73.34;99631.94;126115;1104;22913;-77
2021/05/15 07:07:13;;;;;;;11.60;4.45;;;;;;;14.22;73.38;99640.03;126212;1099;28624;-77
2021/05/15 07:09:41;;;;;;;14.20;5.50;;;;;;;14.28;72.70;99630.33;126102;1104;22805;-77
2021/05/15 07:12:10;;;;;;;10.55;4.55;;;;;;;14.36;73.45;99634.11;126225;1104;22870;-77
2021/05/15 07:14:39;;;;;;;12.75;5.75;;;;;;;14.46;72.69;99631.77;126191;1104;22754;-78
2021/05/15 07:17:07;;;;;;;12.70;5.95;;;;;;;14.53;71.66;99625.58;126191;1099;27920;-78
2021/05/15 07:19:37;;;;;;;14.13;6.17;;;;;;;14.58;71.92;99633.22;126156;1104;22828;-77
2021/05/15 07:22:06;;;;;;;13.90;6.28;;;;;;;14.69;71.46;99633.13;126234;1104;22941;-77
2021/05/15 07:24:35;;;;;;;17.10;6.87;;;;;;;14.78;72.08;99640.47;126119;1100;22784;-77
2021/05/15 07:27:04;;;;;;;13.13;5.77;;;;;;;14.86;71.10;99633.77;126191;1099;26318;-77
2021/05/15 07:29:32;;;;;;;11.00;5.27;;;;;;;14.93;70.88;99638.83;126156;1105;22751;-77
2021/05/15 07:32:01;;;;;;;11.53;4.60;;;;;;;15.01;71.00;99636.20;126188;1099;27695;-77
2021/05/15 07:34:30;;;;;;;12.00;4.67;;;;;;;15.06;70.94;99630.52;126248;1104;22940;-80
2021/05/15 07:36:59;;;;;;;10.20;4.10;;;;;;;15.16;70.96;99628.92;126340;1104;24452;-78
2021/05/15 07:39:27;;;;;;;12.87;4.80;;;;;;;15.25;70.01;99619.36;126210;1104;22902;-77
2021/05/15 07:41:56;;;;;;;14.80;5.10;;;;;;;15.33;69.58;99623.14;126171;1104;23748;-77
2021/05/15 07:44:25;;;;;;;10.60;4.70;;;;;;;15.34;68.54;99622.60;126122;1104;22757;-77
2021/05/15 07:46:53;;;;;;;10.65;4.35;;;;;;;15.36;69.09;99617.21;126161;1104;22882;-77
2021/05/15 07:49:22;;;;;;;9.45;3.55;;;;;;;15.41;69.18;99618.45;126171;1104;22758;-77
2021/05/15 07:51:52;;;;;;;11.80;4.10;;;;;;;15.51;69.04;99611.20;126147;1104;22774;-77
2021/05/15 07:54:29;;;;;;;11.67;3.90;;;;;;;15.62;68.83;99618.77;126188;1099;22816;-76
2021/05/15 07:57:00;;;;;;;9.90;3.95;;;;;;;15.65;67.80;99612.83;126159;1104;22920;-75
2021/05/15 07:59:28;;;;;;;9.20;3.80;;;;;;;15.67;67.59;99612.30;126259;1104;22767;-76
2021/05/15 08:01:57;;;;;;;12.53;4.50;;;;;;;15.68;67.70;99614.59;126216;1104;22902;-76
2021/05/15 08:04:25;;;;;;;11.15;4.05;;;;;;;15.74;66.91;99606.84;126099;1104;24606;-76
2021/05/15 08:06:54;;;;;;;9.10;3.25;;;;;;;15.79;67.32;99608.05;126197;1105;22809;-76
2021/05/15 08:09:22;;;;;;;9.67;4.23;;;;;;;15.90;66.65;99608.69;126178;1104;22826;-78
2021/05/15 08:11:51;;;;;;;10.45;3.50;;;;;;;16.04;65.97;99621.56;126246;1100;26308;-80
2021/05/15 08:14:19;;;;;;;7.70;3.30;;;;;;;16.17;66.64;99618.06;126092;1099;22753;-79
2021/05/15 08:16:48;;;;;;;11.40;4.00;;;;;;;16.27;66.78;99616.38;126269;1104;22939;-79
2021/05/15 08:19:17;;;;;;;12.25;4.35;;;;;;;16.38;66.19;99613.42;126354;1098;22783;-78
2021/05/15 08:21:46;;;;;;;12.00;5.00;;;;;;;16.42;65.53;99624.38;126224;1099;25989;-78
2021/05/15 08:24:14;;;;;;;11.70;4.30;;;;;;;16.45;65.37;99615.60;126210;1104;22774;-79
2021/05/15 08:26:45;;;;;;;12.10;4.33;;;;;;;16.55;65.18;99618.84;126559;1104;22785;-79
2021/05/15 08:29:15;;;;;;;11.45;3.10;;;;;;;16.67;65.52;99620.95;126615;1104;22932;-79
2021/05/15 08:31:43;;;;;;;9.87;4.30;;;;;;;16.79;65.52;99618.70;126205;1104;24509;-79
2021/05/15 08:34:12;;;;;;;9.65;3.70;;;;;;;16.78;64.26;99617.94;126313;1104;22818;-77
2021/05/15 08:36:40;;;;;;;11.60;3.50;;;;;;;16.84;64.56;99615.05;126431;1104;22747;-76
2021/05/15 08:39:09;;;;;;;10.30;3.35;;;;;;;16.96;64.04;99617.15;126308;1104;22764;-78
2021/05/15 08:41:37;;;;;;;7.17;2.00;;;;;;;17.04;62.32;99624.96;126261;1104;22926;-78
2021/05/15 08:44:11;;;;;;;8.40;1.80;;;;;;;17.12;63.61;99623.02;126118;1104;22784;-78
2021/05/15 08:46:43;;;;;;;8.85;2.70;;;;;;;17.21;62.20;99614.16;126178;1104;22835;-77
2021/05/15 08:49:15;;;;;;;6.85;2.20;;;;;;;17.26;62.41;99616.87;126150;1100;26251;-78
2021/05/15 08:51:44;;;;;;;7.10;1.90;;;;;;;17.34;62.84;99620.56;126293;1099;27644;-77
2021/05/15 08:54:14;;;;;;;9.70;2.50;;;;;;;17.41;61.79;99619.17;126104;1104;22923;-77
2021/05/15 08:56:43;;;;;;;6.90;1.90;;;;;;;17.51;61.49;99621.05;126104;1104;22851;-78
2021/05/15 08:59:12;;;;;;;5.50;1.30;;;;;;;17.64;60.28;99625.95;126355;1105;22764;-78
2021/05/15 09:01:41;;;;;;;4.60;1.10;;;;;;;17.69;59.46;99625.09;126336;1099;22748;-78
2021/05/15 09:04:10;;;;;;;4.53;0.93;;;;;;;17.64;59.21;99615.42;129673;1104;22599;-78
2021/05/15 09:06:41;;;;;;;5.20;1.20;;;;;;;17.62;58.21;99614.44;129772;1104;23348;-78
2021/05/15 09:09:10;;;;;;;6.87;1.60;;;;;;;17.60;59.23;99620.63;127776;1104;23315;-78
2021/05/15 09:11:38;;;;;;;14.30;1.60;;;;;;;17.62;59.30;99620.09;126280;1105;22833;-78
2021/05/15 09:14:15;;;;;;;8.85;1.50;;;;;;;17.65;59.19;99614.10;126198;1104;22825;-78
2021/05/15 09:16:50;;;;;;;7.85;1.70;;;;;;;17.68;58.95;99627.14;126209;1104;22769;-78
2021/05/15 09:19:21;;;;;;;5.83;1.77;;;;;;;17.68;58.78;99624.33;126131;1104;22745;-78
2021/05/15 09:22:03;;;;;;;5.05;1.50;;;;;;;17.70;58.84;99627.36;126257;1098;26276;-77
2021/05/15 09:24:37;;;;;;;3.00;1.10;;;;;;;17.81;58.11;99631.27;126141;1104;22761;-77
2021/05/15 09:27:09;;;;;;;10.10;1.90;;;;;;;17.97;58.72;99621.69;126333;1099;22783;-78
2021/05/15 09:29:44;;;;;;;5.80;1.50;;;;;;;18.09;57.90;99620.14;126448;1105;22817;-77
2021/05/15 09:32:13;;;;;;;6.65;1.60;;;;;;;18.24;58.23;99612.63;129226;1100;25935;-77
2021/05/15 09:34:47;;;;;;;7.93;1.50;;;;;;;18.37;57.41;99615.39;126170;1104;22860;-76
2021/05/15 09:37:28;;;;;;;4.85;1.40;;;;;;;18.43;56.29;99601.95;126229;1104;22754;-76
2021/05/15 09:39:56;;;;;;;10.15;1.90;;;;;;;18.42;56.25;99605.28;126357;1104;22760;-76
2021/05/15 09:42:25;;;;;;;4.60;1.17;;;;;;;18.44;57.04;99599.87;126225;1100;22758;-78
2021/05/15 09:44:55;;;;;;;4.07;0.90;;;;;;;18.54;55.84;99604.50;126121;1100;22794;-78
2021/05/15 09:47:23;;;;;;;4.45;1.03;;;;;;;18.66;55.13;99596.53;126168;1104;23483;-77
2021/05/15 09:49:54;;;;;;;5.90;1.00;;;;;;;18.76;54.64;99597.58;126137;1099;27450;-77
2021/05/15 09:52:32;;;;;;;3.60;1.00;;;;;;;18.85;55.01;99605.56;126173;1104;23631;-77
2021/05/15 09:55:09;;;;;;;5.80;1.37;;;;;;;18.89;53.34;99594.66;126074;1104;23007;-77
2021/05/15 09:57:38;;;;;;;3.63;0.75;;;;;;;18.81;53.96;99590.27;126494;1104;22879;-77
2021/05/15 10:00:13;;;;;;;5.65;1.10;;;;;;;18.85;53.51;99594.25;126085;1105;22777;-77
2021/05/15 10:02:53;;;;;;;6.03;0.90;;;;;;;18.94;53.20;99587.34;126119;1104;22756;-77
2021/05/15 10:05:22;;;;;;;;;;;;;;;18.99;53.04;99592.12;126323;1104;23641;-76
2021/05/15 10:07:51;;;;;;;4.53;1.00;;;;;;;19.08;52.97;99591.61;126146;1105;24195;-77
2021/05/15 10:10:20;;;;;;;3.13;0.80;;;;;;;19.18;52.37;99584.91;126079;1104;22805;-77
2021/05/15 10:12:49;;;;;;;2.05;0.70;;;;;;;19.25;52.18;99591.94;126197;1105;22785;-77
2021/05/15 10:15:19;;;;;;;3.48;0.90;;;;;;;19.30;52.74;99583.30;126094;1104;22756;-77
2021/05/15 10:17:48;;;;;;;3.03;0.70;;;;;;;19.38;51.29;99577.73;126160;1104;22754;-77
2021/05/15 10:20:17;;;;;;;4.10;0.70;;;;;;;19.51;52.24;99582.53;126179;1105;22990;-77
2021/05/15 10:22:46;;;;;;;4.15;0.90;;;;;;;19.62;51.17;99570.88;126162;1104;22785;-77
2021/05/15 10:25:17;;;;;;;4.43;0.83;;;;;;;19.65;51.70;99567.71;126247;1105;22754;-76
2021/05/15 10:27:44;;;;;;;;;;;;;;;19.75;51.59;99568.70;126181;1104;24327;-77
2021/05/15 10:30:20;;;;;;;2.40;0.63;;;;;;;19.84;51.66;99558.93;126135;1104;21511;-77
2021/05/15 10:32:57;;;;;;;6.27;1.00;;;;;;;19.92;51.33;99557.65;126329;1104;22926;-77
2021/05/15 10:35:31;;;;;;;4.08;1.00;;;;;;;20.00;50.80;99549.94;126287;1100;26008;-78
2021/05/15 10:38:13;;;;;;;5.33;0.78;;;;;;;20.02;50.93;99546.53;126330;1104;22942;-79
2021/05/15 10:40:47;;;;;;;4.05;0.90;;;;;;;20.08;50.44;99552.78;126189;1104;22756;-76
2021/05/15 10:43:31;;;;;;;3.47;0.90;;;;;;;20.16;51.32;99550.73;126278;1104;22839;-77
2021/05/15 10:46:00;;;;;;;5.03;0.90;;;;;;;20.23;50.57;99555.70;126267;1099;27195;-76
2021/05/15 10:48:29;;;;;;;2.48;0.65;;;;;;;20.30;48.95;99554.95;126168;1104;24476;-77
2021/05/15 10:51:00;;;;;;;2.80;0.80;;;;;;;20.26;48.33;99551.73;126192;1104;23071;-76
2021/05/15 10:53:30;;;;;;;1.98;0.60;;;;;;;20.14;49.21;99544.87;126678;1104;23202;-77
2021/05/15 10:56:02;;;;;;;;;;;;;;;20.21;49.14;99540.58;126337;1104;22751;-77
2021/05/15 10:58:47;;;;;;;1.40;0.40;;;;;;;20.28;48.99;99534.91;126240;1104;23133;-76
2021/05/15 11:01:18;;;;;;;1.85;0.58;;;;;;;20.35;49.32;99533.42;126146;1104;22818;-77
2021/05/15 11:03:50;;;;;;;3.90;0.68;;;;;;;20.33;48.43;99527.56;126580;1104;22784;-77
2021/05/15 11:06:21;;;;;;;2.80;0.75;;;;;;;20.33;48.84;99521.89;126204;1098;25893;-77
2021/05/15 11:09:01;;;;;;;4.90;1.30;;;;;;;20.40;48.77;99510.55;126247;1104;22871;-76
2021/05/15 11:11:42;;;;;;;2.93;0.60;;;;;;;20.49;49.13;99514.92;126540;1100;22771;-76
2021/05/15 11:14:30;;;;;;;2.35;0.53;;;;;;;20.57;48.17;99507.94;126242;1104;22822;-77
2021/05/15 11:17:11;;;;;;;4.90;0.50;;;;;;;20.64;48.35;99500.77;126309;1104;22784;-77
2021/05/15 11:19:47;;;;;;;3.85;0.60;;;;;;;20.69;47.81;99494.16;126398;1104;22881;-77
2021/05/15 11:22:17;;;;;;;2.63;0.68;;;;;;;20.72;48.21;99499.45;126259;1104;22771;-76
2021/05/15 11:24:54;;;;;;;4.87;0.70;;;;;;;20.66;47.71;99486.77;126400;1099;25842;-77
2021/05/15 11:27:24;;;;;;;2.27;0.60;;;;;;;20.63;47.96;99496.43;126242;1100;23830;-76
2021/05/15 11:30:10;;;;;;;2.43;0.70;;;;;;;20.65;47.60;99483.17;126301;1104;22797;-77
2021/05/15 11:32:38;;;;;;;4.10;0.95;;;;;;;20.69;47.96;99494.89;126491;1100;26520;-77
2021/05/15 11:35:10;;;;;;;25.40;9.90;;;;;;;20.71;47.69;99497.19;126192;1104;23002;-77
2021/05/15 11:37:39;;;;;;;23.15;15.15;;;;;;;20.67;46.90;99485.46;126594;1104;23202;-77